Time;durP1;ratioP1;P1;durP2;ratioP2;P2;SDS_P1;SDS_P2;PMS_P1;PMS_P2;Temp;Humidity;BMP_temperature;BMP_pressure;BME280_temperature;BME280_humidity;BME280_pressure;Samples;Min_cycle;Max_cycle;Signal;HPM_P1;HPM_P2
2022/08/10 00:01:33;;;;;;;7.40;4.45;;;16.50;99.90;;;;;;5047986;28;36079;-61
2022/08/10 00:04:00;;;;;;;9.30;5.05;;;16.50;99.90;;;;;;5051047;28;39142;-60
2022/08/10 00:06:28;;;;;;;8.05;5.38;;;16.60;99.90;;;;;;5050030;28;37406;-60
2022/08/10 00:08:55;;;;;;;7.93;4.90;;;16.60;99.90;;;;;;5051613;28;36584;-60
2022/08/10 00:11:23;;;;;;;7.80;4.95;;;16.70;99.90;;;;;;5050866;28;38536;-60
2022/08/10 00:13:52;;;;;;;8.15;4.95;;;16.70;99.90;;;;;;5050256;28;36490;-60
2022/08/10 00:16:19;;;;;;;8.82;5.28;;;16.70;99.90;;;;;;5050055;28;40068;-60
2022/08/10 00:18:47;;;;;;;9.93;5.22;;;16.70;99.90;;;;;;5051176;28;37846;-61
2022/08/10 00:21:14;;;;;;;12.57;4.43;;;16.70;99.90;;;;;;5047478;28;37253;-60
2022/08/10 00:23:42;;;;;;;7.10;5.00;;;16.70;99.90;;;;;;5049996;28;36542;-60
2022/08/10 00:26:09;;;;;;;8.80;4.50;;;16.70;99.90;;;;;;5049678;28;38995;-60
2022/08/10 00:28:37;;;;;;;6.32;4.30;;;16.70;99.90;;;;;;5049611;28;37525;-60
2022/08/10 00:31:06;;;;;;;6.60;3.97;;;16.70;99.90;;;;;;5050660;28;37223;-60
2022/08/10 00:33:33;;;;;;;7.85;4.10;;;16.60;99.90;;;;;;5050500;28;35325;-61
2022/08/10 00:36:01;;;;;;;6.13;3.83;;;16.60;99.90;;;;;;5048881;28;38656;-60
2022/08/10 00:38:28;;;;;;;7.22;4.10;;;16.60;99.90;;;;;;5052212;28;37718;-60
2022/08/10 00:40:55;;;;;;;5.95;4.30;;;16.60;99.90;;;;;;5050474;28;36615;-60
2022/08/10 00:43:24;;;;;;;5.90;3.67;;;16.60;99.90;;;;;;5045340;28;37579;-60
2022/08/10 00:45:52;;;;;;;5.70;3.92;;;16.50;99.90;;;;;;5049585;28;39434;-61
2022/08/10 00:48:21;;;;;;;6.18;3.45;;;16.40;99.90;;;;;;5039525;28;38564;-60
2022/08/10 00:50:49;;;;;;;7.75;3.63;;;16.30;99.90;;;;;;5048629;28;37536;-61
2022/08/10 00:53:17;;;;;;;6.30;3.70;;;16.30;99.90;;;;;;5050620;28;38268;-61
2022/08/10 00:55:44;;;;;;;8.93;4.85;;;16.30;99.90;;;;;;5048783;28;37800;-60
2022/08/10 00:58:12;;;;;;;6.88;4.15;;;16.30;99.90;;;;;;5050099;28;40966;-61
2022/08/10 01:00:41;;;;;;;6.95;4.20;;;16.30;99.90;;;;;;5047948;28;37633;-60
2022/08/10 01:03:08;;;;;;;6.78;4.60;;;16.30;99.90;;;;;;5046012;28;37062;-61
2022/08/10 01:05:44;;;;;;;6.05;4.40;;;16.40;99.90;;;;;;5047206;28;37007;-60
2022/08/10 01:08:25;;;;;;;5.95;4.38;;;16.30;99.90;;;;;;5049594;28;39140;-60
2022/08/10 01:11:02;;;;;;;7.50;5.40;;;16.30;99.90;;;;;;5048198;28;36208;-60
2022/08/10 01:13:37;;;;;;;8.15;5.05;;;16.30;99.90;;;;;;5048106;28;37276;-60
2022/08/10 01:16:11;;;;;;;8.48;5.55;;;16.30;99.90;;;;;;5048764;28;38921;-60
2022/08/10 01:18:45;;;;;;;6.57;4.40;;;16.30;99.90;;;;;;5046099;28;38208;-61
2022/08/10 01:21:41;;;;;;;6.47;3.95;;;16.30;99.90;;;;;;5047913;28;39037;-61
2022/08/10 01:24:38;;;;;;;7.22;4.75;;;16.30;99.90;;;;;;5044179;28;36423;-60
2022/08/10 01:27:24;;;;;;;6.40;4.45;;;16.20;99.90;;;;;;5048932;28;36361;-60
2022/08/10 01:30:07;;;;;;;7.07;5.10;;;16.20;99.90;;;;;;5047831;28;37242;-61
2022/08/10 01:32:50;;;;;;;7.63;5.35;;;16.30;99.90;;;;;;5048313;28;38034;-62
2022/08/10 01:35:24;;;;;;;8.35;5.28;;;16.30;99.90;;;;;;5047989;28;35431;-60
2022/08/10 01:37:59;;;;;;;7.18;5.35;;;16.30;99.90;;;;;;5050305;28;38388;-60
2022/08/10 01:40:30;;;;;;;7.57;5.75;;;16.30;99.90;;;;;;5050179;28;38544;-60
2022/08/10 01:43:00;;;;;;;8.45;5.90;;;16.30;99.90;;;;;;5049429;28;37223;-61
2022/08/10 01:45:31;;;;;;;9.18;5.65;;;16.40;99.90;;;;;;5049006;28;38370;-61
2022/08/10 01:50:48;;;;;;;9.43;5.07;;;16.40;99.90;;;;;;5050240;28;38989;-61
2022/08/10 01:53:20;;;;;;;8.65;5.20;;;16.40;99.90;;;;;;5049836;28;36245;-61
2022/08/10 01:55:49;;;;;;;6.75;4.07;;;16.40;99.90;;;;;;5050669;28;35343;-61
2022/08/10 01:58:18;;;;;;;5.30;3.17;;;16.40;99.90;;;;;;5049238;28;38714;-61
2022/08/10 02:00:50;;;;;;;4.05;2.17;;;16.30;99.90;;;;;;5046187;28;38422;-60
2022/08/10 02:03:19;;;;;;;4.70;2.83;;;16.20;99.90;;;;;;5050654;28;37547;-60
2022/08/10 02:05:50;;;;;;;5.25;2.63;;;16.20;99.90;;;;;;5042787;28;39162;-60
2022/08/10 02:08:21;;;;;;;4.28;2.70;;;16.10;99.90;;;;;;5051023;28;37728;-60
2022/08/10 02:10:50;;;;;;;5.78;4.25;;;16.10;99.90;;;;;;5048405;28;38413;-60
2022/08/10 02:13:18;;;;;;;7.15;4.38;;;16.10;99.90;;;;;;5046655;28;37369;-60
2022/08/10 02:15:50;;;;;;;12.82;4.63;;;16.10;99.90;;;;;;5050486;28;37206;-60
2022/08/10 02:18:20;;;;;;;9.10;4.40;;;16.10;99.90;;;;;;5049667;28;39157;-60
2022/08/10 02:20:50;;;;;;;6.15;3.58;;;16.10;99.90;;;;;;5049674;28;36688;-61
2022/08/10 02:23:25;;;;;;;5.05;2.97;;;16.10;99.90;;;;;;5049640;28;38392;-60
2022/08/10 02:25:55;;;;;;;5.18;3.00;;;16.10;99.90;;;;;;5047770;28;36520;-61
2022/08/10 02:28:25;;;;;;;7.65;3.85;;;16.10;99.90;;;;;;5051212;28;36367;-61
2022/08/10 02:30:55;;;;;;;6.97;5.03;;;16.10;99.90;;;;;;5049675;28;37759;-60
2022/08/10 02:33:25;;;;;;;6.72;4.82;;;16.10;99.90;;;;;;5048906;28;36236;-60
2022/08/10 02:35:54;;;;;;;9.30;5.30;;;16.10;99.90;;;;;;5047740;28;36490;-61
2022/08/10 02:38:31;;;;;;;7.80;5.85;;;16.10;99.90;;;;;;5050326;28;36247;-60
2022/08/10 02:41:04;;;;;;;9.02;5.82;;;16.10;99.90;;;;;;5048481;28;38971;-61
2022/08/10 02:43:38;;;;;;;9.82;5.65;;;16.10;99.90;;;;;;5048713;28;36180;-60
2022/08/10 02:46:10;;;;;;;8.75;6.05;;;16.10;99.90;;;;;;5044555;28;35268;-60
2022/08/10 02:48:41;;;;;;;9.20;6.53;;;16.20;99.90;;;;;;5047679;28;38344;-61
2022/08/10 02:51:14;;;;;;;9.07;6.10;;;16.20;99.90;;;;;;5048132;28;39748;-59
2022/08/10 02:53:46;;;;;;;8.85;5.28;;;16.20;99.90;;;;;;5042710;28;37309;-60
2022/08/10 02:56:22;;;;;;;9.80;6.75;;;16.20;99.90;;;;;;5051406;28;36719;-60
2022/08/10 02:58:56;;;;;;;8.35;6.03;;;16.20;99.90;;;;;;5039031;28;36289;-61
2022/08/10 03:01:34;;;;;;;7.72;5.60;;;16.10;99.90;;;;;;5051594;28;37752;-60
2022/08/10 03:04:06;;;;;;;9.07;5.45;;;16.10;99.90;;;;;;5043563;28;35973;-60
2022/08/10 03:06:37;;;;;;;7.70;5.50;;;16.00;99.90;;;;;;5049270;28;36347;-60
2022/08/10 03:09:07;;;;;;;12.68;6.25;;;16.00;99.90;;;;;;5048860;28;37742;-60
2022/08/10 03:11:36;;;;;;;9.48;6.07;;;16.00;99.90;;;;;;5048797;28;37795;-61
2022/08/10 03:14:06;;;;;;;9.75;6.38;;;16.00;99.90;;;;;;5048488;28;40971;-60
2022/08/10 03:16:36;;;;;;;10.35;6.22;;;16.00;99.90;;;;;;5048019;28;36517;-60
2022/08/10 03:19:06;;;;;;;8.18;6.60;;;16.00;99.90;;;;;;5049589;28;37788;-62
2022/08/10 03:21:35;;;;;;;9.93;5.72;;;16.00;99.90;;;;;;5048584;28;36635;-61
2022/08/10 03:24:05;;;;;;;9.57;6.65;;;16.00;99.90;;;;;;5036998;28;39009;-61
2022/08/10 03:26:33;;;;;;;9.73;6.28;;;16.10;99.90;;;;;;5048417;28;36875;-60
2022/08/10 03:29:02;;;;;;;9.93;6.57;;;16.10;99.90;;;;;;5049786;28;38125;-60
2022/08/10 03:31:31;;;;;;;8.70;6.43;;;16.10;99.90;;;;;;5048249;28;37878;-60
2022/08/10 03:34:01;;;;;;;9.27;6.55;;;16.10;99.90;;;;;;5048884;28;36242;-60
2022/08/10 03:36:30;;;;;;;11.63;7.10;;;16.10;99.90;;;;;;5053175;28;36585;-60
2022/08/10 03:38:58;;;;;;;10.30;7.50;;;16.10;99.90;;;;;;5046674;28;38431;-61
2022/08/10 03:41:31;;;;;;;10.88;6.32;;;16.20;99.90;;;;;;5051574;28;38414;-60
2022/08/10 03:44:01;;;;;;;9.48;6.30;;;16.10;99.90;;;;;;5044809;28;36181;-61
2022/08/10 03:46:30;;;;;;;11.73;7.47;;;16.10;99.90;;;;;;5054361;28;36539;-60
2022/08/10 03:49:04;;;;;;;10.00;6.82;;;16.10;99.90;;;;;;5047891;28;37432;-61
2022/08/10 03:51:35;;;;;;;9.40;6.38;;;16.20;99.90;;;;;;5051118;28;38761;-60
2022/08/10 03:54:03;;;;;;;9.20;6.47;;;16.10;99.90;;;;;;5051792;28;37265;-60
2022/08/10 03:56:31;;;;;;;8.43;5.43;;;16.10;99.90;;;;;;5049514;28;37532;-60
2022/08/10 03:58:59;;;;;;;10.55;5.97;;;16.10;99.90;;;;;;5049743;28;38048;-60
2022/08/10 04:01:27;;;;;;;8.55;5.53;;;16.10;99.90;;;;;;5049760;28;37735;-60
2022/08/10 04:03:54;;;;;;;8.70;5.75;;;16.10;99.90;;;;;;5048722;28;37086;-60
2022/08/10 04:06:23;;;;;;;9.02;5.82;;;16.10;99.90;;;;;;5050085;28;37885;-60
2022/08/10 04:08:52;;;;;;;10.55;5.97;;;16.10;99.90;;;;;;5044787;28;38125;-61
2022/08/10 04:11:19;;;;;;;8.07;5.85;;;16.10;99.90;;;;;;5048295;28;37796;-61
2022/08/10 04:13:47;;;;;;;6.95;4.90;;;16.00;99.90;;;;;;5048588;28;37146;-60
2022/08/10 04:16:14;;;;;;;9.77;5.40;;;16.00;99.90;;;;;;5047053;28;36023;-61
2022/08/10 04:18:41;;;;;;;8.02;6.18;;;16.00;99.90;;;;;;5049533;28;37579;-60
2022/08/10 04:21:12;;;;;;;9.55;6.63;;;15.90;99.90;;;;;;5051230;28;39665;-61
2022/08/10 04:23:44;;;;;;;8.30;5.78;;;16.00;99.90;;;;;;5048479;28;38077;-61
2022/08/10 04:26:12;;;;;;;9.10;6.25;;;16.00;99.90;;;;;;5048997;28;36400;-61
2022/08/10 04:28:40;;;;;;;9.48;5.70;;;15.90;99.90;;;;;;5050429;28;40263;-60
2022/08/10 04:31:09;;;;;;;7.60;6.03;;;16.00;99.90;;;;;;5049975;28;38955;-61
2022/08/10 04:33:39;;;;;;;9.02;6.35;;;16.00;99.90;;;;;;5047669;28;36012;-61
2022/08/10 04:36:10;;;;;;;11.45;6.65;;;16.00;99.90;;;;;;5049561;28;36336;-61
2022/08/10 04:38:40;;;;;;;9.20;6.35;;;16.10;99.90;;;;;;5049126;28;38355;-61
2022/08/10 04:41:08;;;;;;;9.10;6.20;;;16.10;99.90;;;;;;5049549;28;37952;-60
2022/08/10 04:43:35;;;;;;;10.52;6.30;;;16.10;99.90;;;;;;5048200;28;37816;-60
2022/08/10 04:46:03;;;;;;;7.53;5.25;;;16.10;99.90;;;;;;5046761;28;36571;-60
2022/08/10 04:48:30;;;;;;;8.65;5.40;;;16.10;99.90;;;;;;5049302;28;38395;-60
2022/08/10 04:50:57;;;;;;;7.20;5.00;;;16.20;99.90;;;;;;5047938;28;37471;-60
2022/08/10 04:53:25;;;;;;;10.05;5.82;;;16.20;99.90;;;;;;5047116;28;36114;-61
2022/08/10 04:55:53;;;;;;;12.60;5.80;;;16.30;99.90;;;;;;5048354;28;36666;-60
2022/08/10 04:58:21;;;;;;;10.05;5.97;;;16.40;99.90;;;;;;5052176;28;38925;-60
2022/08/10 05:00:48;;;;;;;9.80;6.43;;;16.50;99.90;;;;;;5049852;28;40069;-61
2022/08/10 05:03:15;;;;;;;10.45;6.57;;;16.60;99.90;;;;;;5049524;28;36121;-60
2022/08/10 05:05:43;;;;;;;7.95;5.82;;;16.70;99.90;;;;;;5048470;28;37803;-60
2022/08/10 05:08:10;;;;;;;9.98;6.18;;;16.70;99.90;;;;;;5051704;28;37421;-60
2022/08/10 05:10:37;;;;;;;8.68;6.13;;;16.80;99.90;;;;;;5049662;28;37329;-60
2022/08/10 05:13:07;;;;;;;9.63;6.70;;;17.00;99.90;;;;;;5048797;28;37894;-60
2022/08/10 05:15:35;;;;;;;10.77;5.82;;;17.10;99.90;;;;;;5050547;28;36602;-60
2022/08/10 05:18:02;;;;;;;9.23;6.53;;;17.20;99.90;;;;;;5049852;28;37505;-60
2022/08/10 05:20:29;;;;;;;8.55;6.20;;;17.20;99.90;;;;;;5050530;28;36646;-59
2022/08/10 05:22:57;;;;;;;8.48;5.85;;;17.30;99.90;;;;;;5051178;28;36917;-60
2022/08/10 05:25:25;;;;;;;10.52;6.53;;;17.40;99.90;;;;;;5049157;28;20144;-60
2022/08/10 05:27:52;;;;;;;9.90;7.40;;;17.50;99.90;;;;;;5049783;28;37575;-60
2022/08/10 05:30:22;;;;;;;8.40;5.80;;;17.60;99.90;;;;;;5045344;28;39652;-60
2022/08/10 05:32:50;;;;;;;9.52;6.50;;;17.70;99.90;;;;;;5042254;28;37367;-60
2022/08/10 05:35:18;;;;;;;9.07;6.30;;;17.80;99.90;;;;;;5044985;28;36461;-61
2022/08/10 05:37:47;;;;;;;13.05;6.75;;;17.90;99.90;;;;;;5047050;28;36124;-60
2022/08/10 05:40:14;;;;;;;9.93;7.07;;;18.00;99.90;;;;;;5041612;28;36536;-60
2022/08/10 05:42:42;;;;;;;10.13;7.07;;;18.20;99.90;;;;;;5048342;28;40301;-60
2022/08/10 05:45:19;;;;;;;9.75;7.30;;;18.30;99.90;;;;;;5046603;28;36545;-60
2022/08/10 05:47:47;;;;;;;9.57;6.25;;;18.40;99.90;;;;;;5044428;28;37590;-60
2022/08/10 05:50:18;;;;;;;11.32;6.60;;;18.50;99.90;;;;;;5042323;28;38440;-60
2022/08/10 05:52:46;;;;;;;9.18;6.03;;;18.60;99.90;;;;;;5049270;28;36074;-60
2022/08/10 05:55:14;;;;;;;12.93;7.03;;;18.60;99.90;;;;;;5046811;28;38106;-60
2022/08/10 05:57:42;;;;;;;9.65;5.97;;;18.70;99.90;;;;;;5049556;28;37679;-60
2022/08/10 06:00:14;;;;;;;9.52;5.90;;;18.80;99.90;;;;;;5047004;28;40133;-60
2022/08/10 06:02:45;;;;;;;13.52;6.82;;;19.00;99.90;;;;;;5048091;28;37984;-60
2022/08/10 06:05:17;;;;;;;10.15;6.18;;;19.00;99.90;;;;;;5044277;28;36553;-60
2022/08/10 06:07:48;;;;;;;9.48;6.03;;;19.10;99.90;;;;;;5046197;28;38418;-60
2022/08/10 06:10:17;;;;;;;9.00;5.85;;;19.20;99.90;;;;;;5049209;28;37869;-60
2022/08/10 06:12:48;;;;;;;7.82;6.18;;;19.20;99.90;;;;;;5049764;28;37524;-60
2022/08/10 06:15:36;;;;;;;9.95;6.10;;;19.30;99.90;;;;;;5050735;28;36947;-60
2022/08/10 06:18:04;;;;;;;11.68;6.18;;;19.40;99.90;;;;;;5047426;28;38557;-60
2022/08/10 06:20:33;;;;;;;12.55;5.82;;;19.40;99.90;;;;;;5032984;28;37920;-60
2022/08/10 06:23:03;;;;;;;11.45;6.22;;;19.40;99.90;;;;;;5036487;28;39756;-61
2022/08/10 06:25:31;;;;;;;9.88;5.93;;;19.50;99.90;;;;;;5036043;28;37491;-60
2022/08/10 06:28:00;;;;;;;10.05;5.43;;;19.60;99.90;;;;;;5031803;28;39000;-60
2022/08/10 06:30:29;;;;;;;10.25;5.47;;;19.60;99.90;;;;;;5032311;28;37607;-60
2022/08/10 06:32:59;;;;;;;10.82;4.97;;;19.70;99.90;;;;;;5033362;28;37296;-60
2022/08/10 06:35:30;;;;;;;10.20;5.40;;;19.80;99.90;;;;;;5030922;28;37116;-61
2022/08/10 06:38:01;;;;;;;13.13;5.45;;;19.80;99.90;;;;;;5031224;28;37878;-60
2022/08/10 06:40:33;;;;;;;8.68;5.15;;;19.90;99.90;;;;;;5036717;28;38192;-60
2022/08/10 06:43:05;;;;;;;7.47;4.78;;;19.90;99.90;;;;;;5037059;28;37031;-60
2022/08/10 06:45:39;;;;;;;9.88;5.13;;;20.00;99.90;;;;;;5030678;28;36030;-60
2022/08/10 06:48:10;;;;;;;11.25;5.20;;;20.00;99.90;;;;;;5027107;28;38874;-60
2022/08/10 06:50:40;;;;;;;8.30;5.00;;;20.10;99.90;;;;;;5035690;28;38010;-60
2022/08/10 06:53:14;;;;;;;9.95;5.53;;;20.20;99.90;;;;;;5027513;28;37027;-61
2022/08/10 06:55:44;;;;;;;9.52;5.15;;;20.20;99.90;;;;;;5032257;28;37049;-60
2022/08/10 06:58:14;;;;;;;7.18;4.10;;;20.30;99.90;;;;;;5036321;28;38615;-61
2022/08/10 07:00:44;;;;;;;8.20;4.55;;;20.30;99.90;;;;;;5032550;28;37790;-60
2022/08/10 07:03:15;;;;;;;7.03;4.10;;;20.30;99.90;;;;;;5032242;28;38661;-61
2022/08/10 07:05:46;;;;;;;6.82;4.30;;;20.40;99.90;;;;;;5034889;28;37190;-61
2022/08/10 07:08:17;;;;;;;5.90;3.60;;;20.50;99.90;;;;;;5033923;28;36136;-61
2022/08/10 07:10:47;;;;;;;8.57;3.97;;;20.50;99.90;;;;;;5032333;28;37459;-61
2022/08/10 07:13:16;;;;;;;7.95;4.05;;;20.50;99.90;;;;;;5034755;28;36149;-61
2022/08/10 07:15:44;;;;;;;7.70;4.03;;;20.60;99.90;;;;;;5034700;28;36484;-61
2022/08/10 07:18:12;;;;;;;6.80;3.30;;;20.60;99.90;;;;;;5032004;28;38195;-61
2022/08/10 07:20:41;;;;;;;5.05;2.88;;;20.60;99.90;;;;;;5052876;28;36423;-61
2022/08/10 07:23:10;;;;;;;6.00;2.75;;;20.70;99.90;;;;;;5053917;28;37048;-61
2022/08/10 07:25:40;;;;;;;7.20;3.35;;;20.80;99.90;;;;;;5053970;28;37934;-61
2022/08/10 07:28:10;;;;;;;5.10;2.88;;;20.80;99.90;;;;;;5053334;28;37712;-61
2022/08/10 07:30:40;;;;;;;7.13;3.10;;;20.90;99.90;;;;;;5052949;28;37623;-61
2022/08/10 07:33:09;;;;;;;7.38;3.00;;;21.00;99.90;;;;;;5052451;28;37116;-61
2022/08/10 07:35:38;;;;;;;12.25;3.70;;;21.00;99.90;;;;;;5053337;28;36228;-61
2022/08/10 07:38:10;;;;;;;7.15;3.40;;;21.00;99.90;;;;;;5047810;28;36324;-61
2022/08/10 07:40:40;;;;;;;5.50;2.80;;;21.00;99.90;;;;;;5053553;28;36649;-61
2022/08/10 07:43:09;;;;;;;6.88;2.63;;;21.00;99.90;;;;;;5047702;28;37345;-61
2022/08/10 07:45:38;;;;;;;10.63;2.55;;;21.10;99.90;;;;;;5051524;28;36752;-61
2022/08/10 07:48:11;;;;;;;7.28;2.85;;;21.10;99.90;;;;;;5051853;28;36797;-61
2022/08/10 07:50:40;;;;;;;5.22;3.05;;;21.20;99.90;;;;;;5050584;28;39040;-61
2022/08/10 07:53:12;;;;;;;7.13;2.13;;;21.30;99.90;;;;;;5052430;28;36871;-61
2022/08/10 07:55:43;;;;;;;4.28;2.30;;;21.30;99.90;;;;;;5052596;28;37845;-61
2022/08/10 07:58:12;;;;;;;4.78;2.38;;;21.30;99.90;;;;;;5051774;28;37586;-61
2022/08/10 08:00:40;;;;;;;5.88;3.05;;;21.50;99.90;;;;;;5047181;28;37400;-62
2022/08/10 08:03:11;;;;;;;6.30;2.45;;;21.60;99.90;;;;;;5051813;28;37553;-61
2022/08/10 08:05:40;;;;;;;4.38;2.30;;;21.60;99.90;;;;;;5052353;28;36349;-61
2022/08/10 08:08:09;;;;;;;5.28;2.53;;;21.60;99.90;;;;;;5050781;28;37618;-61
2022/08/10 08:10:38;;;;;;;7.47;2.58;;;21.60;99.90;;;;;;5050870;28;37932;-61
2022/08/10 08:13:08;;;;;;;4.47;2.30;;;21.60;99.90;;;;;;5046152;28;39242;-61
2022/08/10 08:15:35;;;;;;;4.75;2.30;;;21.70;99.90;;;;;;5049337;28;36829;-61
2022/08/10 08:18:04;;;;;;;6.57;2.85;;;21.70;99.90;;;;;;5046635;28;36187;-61
2022/08/10 08:20:32;;;;;;;7.38;2.58;;;21.80;99.90;;;;;;5031545;28;36432;-61
2022/08/10 08:23:01;;;;;;;8.70;2.30;;;21.80;99.90;;;;;;5035054;28;37547;-61
2022/08/10 08:25:29;;;;;;;5.85;1.70;;;21.90;99.90;;;;;;5034616;28;35234;-61
2022/08/10 08:28:00;;;;;;;5.03;2.20;;;22.00;99.90;;;;;;5033894;28;39496;-61
2022/08/10 08:30:29;;;;;;;7.05;2.28;;;22.00;99.90;;;;;;5035149;28;37918;-61
2022/08/10 08:32:59;;;;;;;6.60;2.05;;;22.10;99.90;;;;;;5036142;28;36310;-61
2022/08/10 08:35:27;;;;;;;4.90;1.70;;;22.10;99.90;;;;;;5035297;28;36833;-61
2022/08/10 08:37:55;;;;;;;5.05;2.13;;;22.20;99.90;;;;;;5035036;28;36407;-61
2022/08/10 08:40:25;;;;;;;4.88;1.98;;;22.20;99.90;;;;;;5031774;28;36443;-61
2022/08/10 08:43:38;;;;;;;5.88;2.20;;;22.30;99.50;;;;;;5034347;28;38580;-61
2022/08/10 08:46:27;;;;;;;5.28;2.15;;;22.40;99.40;;;;;;4997646;28;35472;-61
2022/08/10 08:49:21;;;;;;;4.95;1.40;;;22.40;99.10;;;;;;5037536;28;37287;-62
2022/08/10 08:52:00;;;;;;;10.20;2.35;;;22.40;98.00;;;;;;5034694;28;37605;-61
2022/08/10 08:54:40;;;;;;;6.85;2.58;;;22.50;98.40;;;;;;5037077;28;37029;-61
2022/08/10 08:57:17;;;;;;;4.20;1.80;;;22.60;98.10;;;;;;5034867;28;36905;-61
2022/08/10 08:59:56;;;;;;;5.95;2.50;;;22.70;98.40;;;;;;5037478;28;37327;-61
2022/08/10 09:02:39;;;;;;;4.25;2.00;;;22.80;98.10;;;;;;5036881;28;38140;-61
2022/08/10 09:05:34;;;;;;;8.53;2.03;;;22.90;98.10;;;;;;5037715;28;37639;-61
2022/08/10 09:08:16;;;;;;;9.88;1.73;;;23.00;97.70;;;;;;5032108;28;36471;-61
2022/08/10 09:10:52;;;;;;;4.30;1.70;;;23.10;97.90;;;;;;5035179;28;37679;-61
2022/08/10 09:13:28;;;;;;;5.97;2.10;;;23.20;97.50;;;;;;5034686;28;37687;-61
2022/08/10 09:16:30;;;;;;;6.63;1.83;;;23.20;97.20;;;;;;5031470;28;37607;-62
2022/08/10 09:19:05;;;;;;;5.35;1.63;;;23.40;97.30;;;;;;5037205;28;35150;-61
2022/08/10 09:21:39;;;;;;;5.38;1.58;;;23.50;97.20;;;;;;5031301;28;38237;-61
2022/08/10 09:24:14;;;;;;;5.18;1.98;;;23.70;96.60;;;;;;5036269;28;38012;-62
2022/08/10 09:26:48;;;;;;;5.28;2.33;;;23.70;96.00;;;;;;5035768;28;35517;-61
2022/08/10 09:29:24;;;;;;;5.80;1.92;;;23.90;95.60;;;;;;5036074;28;35271;-61
2022/08/10 09:32:03;;;;;;;4.50;1.85;;;24.00;95.20;;;;;;5033295;28;38576;-61
2022/08/10 09:34:44;;;;;;;5.90;2.10;;;24.00;95.20;;;;;;5034317;28;37388;-62
2022/08/10 09:37:20;;;;;;;5.95;2.45;;;24.10;94.80;;;;;;5035021;28;38460;-61
2022/08/10 09:39:55;;;;;;;4.45;1.67;;;24.10;94.00;;;;;;5035315;28;36616;-61
2022/08/10 09:42:36;;;;;;;7.95;1.85;;;24.20;94.40;;;;;;5034870;28;38071;-62
2022/08/10 09:45:12;;;;;;;6.75;2.05;;;24.30;94.10;;;;;;5036167;28;37746;-61
2022/08/10 09:47:55;;;;;;;12.07;2.65;;;24.30;94.20;;;;;;5034499;28;38334;-61
2022/08/10 09:50:30;;;;;;;8.63;2.30;;;24.50;94.10;;;;;;5035596;28;35308;-61
2022/08/10 09:53:08;;;;;;;9.65;2.58;;;24.60;93.90;;;;;;5035668;28;37736;-61
2022/08/10 09:55:42;;;;;;;3.00;1.42;;;24.70;93.40;;;;;;5035593;28;37704;-61
2022/08/10 09:58:28;;;;;;;6.65;2.00;;;24.80;93.70;;;;;;5036180;28;37322;-61
2022/08/10 10:01:02;;;;;;;5.57;2.10;;;24.90;92.50;;;;;;5034594;28;33772;-63
2022/08/10 10:03:35;;;;;;;5.60;1.70;;;24.90;91.70;;;;;;5035264;28;37492;-61
2022/08/10 10:06:13;;;;;;;5.78;1.80;;;24.90;91.30;;;;;;5035261;28;38517;-61
2022/08/10 10:08:51;;;;;;;7.15;2.00;;;25.00;91.50;;;;;;5035690;28;37469;-61
2022/08/10 10:11:25;;;;;;;5.97;1.73;;;25.10;91.90;;;;;;5034225;28;36715;-61
2022/08/10 10:14:01;;;;;;;5.45;1.42;;;25.20;91.10;;;;;;5035348;28;38481;-62
2022/08/10 10:16:41;;;;;;;12.32;2.30;;;25.30;90.30;;;;;;5033618;28;39637;-61
2022/08/10 10:19:24;;;;;;;8.50;1.70;;;25.30;90.30;;;;;;5036010;28;37312;-62
2022/08/10 10:22:06;;;;;;;5.40;2.10;;;25.50;90.90;;;;;;5034226;28;37127;-62
2022/08/10 10:24:42;;;;;;;5.60;1.83;;;25.60;90.10;;;;;;5034428;28;36232;-61
2022/08/10 10:27:24;;;;;;;10.85;1.88;;;25.60;90.30;;;;;;5034045;28;37633;-61
2022/08/10 10:29:59;;;;;;;5.15;1.95;;;25.70;89.60;;;;;;5034158;28;38289;-61
2022/08/10 10:32:38;;;;;;;3.80;1.67;;;25.70;89.00;;;;;;5028720;28;35359;-62
2022/08/10 10:35:23;;;;;;;4.35;1.77;;;25.70;87.30;;;;;;5035172;28;37241;-62
2022/08/10 10:37:55;;;;;;;5.68;1.80;;;25.70;87.00;;;;;;5035728;28;39234;-62
2022/08/10 10:40:27;;;;;;;3.58;1.52;;;25.80;87.30;;;;;;5035442;28;37695;-62
2022/08/10 10:43:05;;;;;;;8.50;2.10;;;25.80;86.80;;;;;;5030669;28;37070;-62
2022/08/10 10:45:44;;;;;;;4.18;1.45;;;25.80;86.60;;;;;;5032745;28;39131;-62
2022/08/10 10:48:19;;;;;;;4.53;1.70;;;25.80;87.50;;;;;;5035281;28;37333;-62
2022/08/10 10:50:57;;;;;;;5.28;1.60;;;25.90;85.80;;;;;;5030708;28;37070;-62
2022/08/10 10:53:32;;;;;;;9.15;2.00;;;25.80;83.90;;;;;;5031969;28;36222;-62
2022/08/10 10:56:04;;;;;;;3.97;1.30;;;25.80;85.50;;;;;;5034439;28;36168;-62
2022/08/10 10:58:41;;;;;;;4.55;1.20;;;25.80;86.00;;;;;;5034784;28;38297;-61
2022/08/10 11:01:18;;;;;;;3.50;1.30;;;25.80;86.10;;;;;;5034736;28;36138;-62
2022/08/10 11:04:07;;;;;;;4.80;1.65;;;25.90;85.90;;;;;;5031380;28;36224;-62
2022/08/10 11:06:49;;;;;;;11.65;1.90;;;26.00;84.30;;;;;;5031957;28;39391;-62
2022/08/10 11:09:23;;;;;;;3.15;1.08;;;26.10;83.00;;;;;;5031429;28;37986;-62
2022/08/10 11:11:56;;;;;;;3.90;1.05;;;26.10;81.80;;;;;;5031109;28;37550;-62
2022/08/10 11:14:28;;;;;;;;;;;26.00;82.10;;;;;;5031888;28;36994;-62
2022/08/10 11:17:02;;;;;;;6.95;1.58;;;26.10;81.90;;;;;;5031083;28;37731;-62
2022/08/10 11:19:39;;;;;;;3.13;0.95;;;26.00;82.40;;;;;;5041582;28;37498;-62
2022/08/10 11:22:14;;;;;;;7.35;1.20;;;26.10;80.40;;;;;;5045454;28;37501;-62
2022/08/10 11:24:52;;;;;;;4.28;1.23;;;26.00;77.20;;;;;;5045938;28;37178;-62
2022/08/10 11:27:31;;;;;;;4.38;1.17;;;25.90;78.50;;;;;;5045093;28;38309;-62
2022/08/10 11:30:03;;;;;;;3.55;1.20;;;25.90;77.90;;;;;;5045079;28;37438;-61
2022/08/10 11:32:41;;;;;;;4.65;1.15;;;25.90;76.90;;;;;;5048645;28;38056;-62
2022/08/10 11:35:18;;;;;;;3.95;1.25;;;26.00;75.30;;;;;;5047189;28;36988;-62
2022/08/10 11:37:59;;;;;;;3.05;0.98;;;26.00;76.00;;;;;;5046871;28;36376;-62
2022/08/10 11:40:35;;;;;;;2.70;1.02;;;26.10;77.60;;;;;;5047151;28;37695;-62
2022/08/10 11:43:13;;;;;;;2.72;0.90;;;26.10;75.00;;;;;;5047143;28;37484;-62
2022/08/10 11:45:45;;;;;;;1.55;0.95;;;26.10;74.00;;;;;;5044158;28;36101;-62
2022/08/10 11:48:20;;;;;;;3.10;1.02;;;26.00;72.60;;;;;;5047194;28;36390;-62
2022/08/10 11:50:52;;;;;;;2.08;0.85;;;26.00;72.90;;;;;;5046584;28;37934;-61
2022/08/10 11:53:25;;;;;;;2.80;1.00;;;26.00;73.50;;;;;;5048102;28;38036;-62
2022/08/10 11:55:57;;;;;;;3.60;0.95;;;26.00;74.10;;;;;;5048007;28;37106;-62
2022/08/10 12:01:19;;;;;;;5.07;1.00;;;25.90;73.20;;;;;;5051399;28;38550;-61
2022/08/10 12:03:47;;;;;;;3.28;1.30;;;25.90;72.90;;;;;;5042102;28;38204;-62
2022/08/10 12:06:17;;;;;;;3.72;1.27;;;25.90;71.50;;;;;;5052653;28;37301;-62
2022/08/10 12:08:49;;;;;;;2.50;1.00;;;25.90;71.40;;;;;;5046997;28;37601;-61
2022/08/10 12:11:23;;;;;;;3.33;1.10;;;25.80;71.80;;;;;;5047320;28;37806;-61
2022/08/10 12:13:57;;;;;;;2.65;0.90;;;25.90;75.00;;;;;;5048703;28;38108;-61
2022/08/10 12:16:29;;;;;;;4.00;0.90;;;25.90;73.20;;;;;;5046768;28;36592;-61
2022/08/10 12:19:03;;;;;;;4.30;1.00;;;25.80;72.60;;;;;;5049133;28;37593;-61
2022/08/10 12:21:35;;;;;;;2.40;1.00;;;25.80;73.20;;;;;;5049324;28;37806;-62
2022/08/10 12:24:09;;;;;;;2.83;1.00;;;25.80;73.20;;;;;;5050001;28;37479;-62
2022/08/10 12:26:44;;;;;;;3.55;1.30;;;25.80;72.90;;;;;;5047006;28;37521;-62
2022/08/10 12:29:18;;;;;;;4.40;1.25;;;25.80;73.20;;;;;;5048544;28;38267;-62
2022/08/10 12:31:53;;;;;;;2.92;0.90;;;25.70;72.40;;;;;;5049824;28;38822;-61
2022/08/10 12:34:29;;;;;;;2.55;0.90;;;25.70;73.00;;;;;;5050865;28;37741;-62
2022/08/10 12:37:07;;;;;;;3.65;1.05;;;25.70;74.20;;;;;;5050470;28;39039;-61
2022/08/10 12:39:49;;;;;;;4.28;1.45;;;25.70;74.20;;;;;;5050340;28;38169;-62
2022/08/10 12:42:26;;;;;;;2.28;0.95;;;25.70;72.70;;;;;;5049464;28;37580;-62
2022/08/10 12:45:01;;;;;;;1.50;0.90;;;25.70;69.90;;;;;;5048050;28;39347;-62
2022/08/10 12:47:39;;;;;;;3.30;1.00;;;25.60;68.50;;;;;;5047846;28;36749;-62
2022/08/10 12:50:13;;;;;;;5.28;1.10;;;25.60;67.90;;;;;;5049738;28;37720;-61
2022/08/10 12:52:49;;;;;;;4.78;1.42;;;25.60;69.10;;;;;;5048494;28;37681;-61
2022/08/10 12:55:18;;;;;;;3.13;1.25;;;25.60;68.90;;;;;;5048085;28;36001;-62
2022/08/10 12:57:51;;;;;;;3.20;1.00;;;25.60;69.40;;;;;;5048888;28;38448;-61
2022/08/10 13:00:19;;;;;;;2.25;1.10;;;25.60;69.00;;;;;;5049980;28;37313;-61
2022/08/10 13:02:48;;;;;;;4.30;0.90;;;25.50;69.70;;;;;;5049184;28;37815;-61
2022/08/10 13:05:17;;;;;;;3.83;1.23;;;25.50;70.30;;;;;;5047150;28;37941;-62
2022/08/10 13:07:46;;;;;;;4.18;1.25;;;25.50;70.50;;;;;;5051221;28;37883;-61
2022/08/10 13:10:16;;;;;;;3.58;1.40;;;25.50;71.10;;;;;;5051010;28;38585;-62
2022/08/10 13:12:45;;;;;;;4.47;1.23;;;25.50;71.30;;;;;;5050474;28;37491;-62
2022/08/10 13:15:21;;;;;;;2.03;1.15;;;25.50;72.30;;;;;;5052315;28;37461;-62
2022/08/10 13:17:50;;;;;;;5.47;1.10;;;25.50;73.50;;;;;;5053718;28;37628;-61